Sturgeon Bay, WI

10:16 PM CST on January 26, 2015 (GMT -0600)
Manitowoc County | Change Station
CLOSE
Current Station
Airport
Location: Manitowoc,
Elevation: 650 ft
Nearby Weather Stations
Active Advisory: Special Statement

Elev 650 ft 44.13 °N, 87.68 °W | Updated 20 minutes ago

Snow
Snow
26 °F
Feels Like 16 °F
N
12
Wind Variable Wind from SE

Today
High -- | Low -- °F
--% Chance of Precip.
Yesterday
High -- | Low -- °F
Precip. -- in
7:15 AM 4:49 PM
Waxing Crescent, 50% visible
Pressure 30.01 in
Visibility 5.0 miles
Clouds Overcast 2300 ft
Windchill 16 °F
Dew Point 22 °F
Humidity 84%
Rainfall 0.00 in
Snow Depth Not available.
UV 0 out of 12
Pollen .10 out of 12
Air Quality Not available.
Flu Activity Not available.
METAR KMTW 270356Z AUTO 13010KT 5SM -SN BR OVC023 M03/M06 A2994 RMK AO2 UPE0258SNB0258 SLP163 P0000 T10331056 FZRANO

More Conditions Fewer Conditions

Pressure 30.01 in
Visibility 5.0 miles
Clouds Overcast 2300 ft
Windchill 16 °F
Dew Point 22 °F
Humidity 84%
Rainfall 0.00 in
Snow Depth Not available.
UV 0 out of 12
Pollen .10 out of 12
Air Quality Not available.
Flu Activity Not available.
METAR KMTW 270356Z AUTO 13010KT 5SM -SN BR OVC023 M03/M06 A2994 RMK AO2 UPE0258SNB0258 SLP163 P0000 T10331056 FZRANO

More Conditions Fewer Conditions

10-Day Weather Forecast

Almanac

Astronomy

Jan. 26, 2015 Rise Set
Actual Time
Civil Twilight
Nautical Twilight
Astronomical Twilight
Moon
Length of Visible Light
Length of Day
Tomorrow will be .
, % of the Moon is Illuminated

Today's Extremes

State Highs State Lows

Community

WunderPhotos

Upload Photos

1,790,520 photos uploaded!

WunderBlogs® & News

Nearby

Air Quality

  Air Quality AQ Index Pollutant
Not available.

Snow Depth

Station Depth Elevation

Earthquake Activity

City Distance Mag. Time & Date
Minimum magnitude displayed is 2.5.

Coastal Water Temperatures

Place Temperature

Nearby Weather Stations